Bampton, United Kingdom
Current Conditions -  °F | °C
As of 9:50 PM on Monday 24 Nov 2014 (Local Time) from EGVN Reporting Station
Moderate Fog Moderate Fog  
Wind Chill: 30°   Ceiling: Unl
Heat Index: 30°   Visibility: 2.1mi
Dew Point: 30°   Wind: 1mph
Humidity: 100%   Direction: 220°SW
Pressure: 30.33"   Gusts: NA
Location:  51.73°N, 1.55°W
Report Text: EGVN 242150Z 22001KT 3500 2000S VCFG FEW001 M01/M01 Q1027 YLO2 NOSIG
Loading
Personal Weather Stations






























Interactive Weather Map New forecast layout! Learn more

10-Day Weather Forecast

Advertisements
Track Severe Weather on mobile